Strasburg, Virginia
Current Conditions -  °F | °C
As of 9:55 PM on Monday 22 Dec 2014 (Local Time) from KFRR Reporting Station
Overcast Overcast  
Wind Chill: 32°   Ceiling: 300
Heat Index: 32°   Visibility: 2.5mi
Dew Point: 32°   Wind: 3mph
Humidity: 100%   Direction: 40°NE
Pressure: 30.11"   Gusts: NA
Location:  38.99°N, 78.36°W
Report Text: KFRR 230255Z AUTO 04003KT 2 1/2SM OVC003 00/00 A3011 RMK AO1
Loading
Personal Weather Stations






























Interactive Weather Map New forecast layout! Learn more

10-Day Weather Forecast

Advertisements
Track Severe Weather on mobile